Aeroporto :
LOGIN :

Iscrizione | Disclaimer

   EN    FR    IT 

 










Sommario :    VFR   VFR Marginale   IFR   IFR Intensivo   IFR Molto Intensivo
Visibilità : 
Base nubi : 
>= 8 km
>= 3000ft
5 / 8 km
1000 / 3000 ft
1500m / 5 km
500 / 1000 ft
800 / 1500m
200 / 500 ft
< 800m
< 200 ft
Simboli :   Temporali  Nebbia  Neve Forte  Precipitazioni Forti  Vento > 20 kt
SIGMETs :   Varie  Temporali  Ghiacco  Turbolenza  Onda orograficha  Ceneri Vulcaniche






- Altitudine del aeroporto : 290 ft
- Codice IATA : ACI


EGJA - Alderney

ULTIMO METAR :
  • 270650Z 30017KT 9999 FEW011 13/11 Q1008

METARs OBSOLETI :
  • 270620Z 28022G33KT 9999 FEW011 13/12 Q1007
  • 270550Z 26026KT 9999 BKN010 14/12 Q1007

TAF AMD TAF EGJA
Valido dal 27 a 06 ore il 27 a 15 ore UTC


270633Z 2706/2715 26022KT 9999 FEW012
TEMPO 2706/2715 27024G35KT 6000 SHRA BKN015TCU
PROB40
TEMPO 2706/2707 BKN010
PROB40
TEMPO 2707/2715 4000 +SHRA BKN013CB



MetMap, La meteo Aeronautica in un colpo d'occhio ! - Copyright ORBIFLY Dicembre 2007 - Disclaimer

ORBIFLY MET'MAP TEAM :

Programmazione e sviluppo : Alexandra Zaïnal
Concezione : Baudouin d'Aumeries
Aiuto per la programmazione : Marc-Olivier Méhu
Supporto tecnico e logistico : Manuel Goepfert
Aiuto per la traduzione : Arnaldo La Scala

Contatto : metmap@orbifly.com




FONTI E CREDITI :

   NOAA